This is the latest recevied weather packets stored in our database for station/object AA5AW. If no packets are shown the sender has not sent any weather packets the latest 10 day(s).
| Time | Temp. | Humidity | Pressure | Rain* | Wind** | Luminosity | Snow |
|---|---|---|---|---|---|---|---|
| 1777452356 | 24.44° C | 89% | 1012.2 hPa | 0 mm | - | 0 W/m² | - |
| 1777450520 | 23.89° C | 90% | 1012.3 hPa | 0 mm | - | 0 W/m² | - |
| 1777447817 | 23.89° C | 90% | 1011.5 hPa | 0 mm | - | 0 W/m² | - |
| 1777443335 | 24.44° C | 87% | 1011.8 hPa | 0 mm | - | 0 W/m² | - |
| 1777441551 | 24.44° C | 88% | 1012.5 hPa | 0 mm | - | 0 W/m² | - |
| 1777439710 | 24.44° C | 87% | 1013.2 hPa | 0 mm | - | 0 W/m² | - |
| 1777435247 | 25° C | 84% | 1013.7 hPa | 0 mm | - | 0 W/m² | - |
| 1777433424 | 25.56° C | 83% | 1013.9 hPa | 0 mm | - | 0 W/m² | - |
| 1777431642 | 25.56° C | 82% | 1013.5 hPa | 0 mm | - | 0 W/m² | - |
| 1777430726 | 25.56° C | 80% | 1013.8 hPa | 0 mm | - | 0 W/m² | - |
| 1777429818 | 25.56° C | 80% | 1013.7 hPa | 0 mm | - | 0 W/m² | - |
| 1777427115 | 26.67° C | 76% | 1013.2 hPa | 0 mm | - | 0 W/m² | - |
| 1777425316 | 26.67° C | 75% | 1012.8 hPa | 0 mm | - | 0 W/m² | - |
| 1777421705 | 28.33° C | 67% | 1011.3 hPa | 0 mm | - | 21 W/m² | - |
| 1777419004 | 29.44° C | 62% | 1011.1 hPa | 0 mm | - | 83 W/m² | - |
| 1777417226 | 30° C | 60% | 1010.9 hPa | 0 mm | - | 155 W/m² | - |
| 1777411835 | 31.67° C | 55% | 1011.4 hPa | 0 mm | - | 183 W/m² | - |
| 1777410951 | 31.67° C | 55% | 1011.9 hPa | 0 mm | - | 636 W/m² | - |
| 1777409164 | 32.22° C | 55% | 1012.1 hPa | 0 mm | - | 450 W/m² | - |
| 1777408250 | 32.78° C | 53% | 1012.2 hPa | 0 mm | - | 510 W/m² | - |
| 1777406408 | 32.22° C | 56% | 1012.8 hPa | 0 mm | - | 729 W/m² | - |
| 1777396564 | 28.89° C | 72% | 1015 hPa | 0 mm | - | 387 W/m² | - |
| 1777391154 | 27.22° C | 81% | 1014.9 hPa | 0 mm | - | 540 W/m² | - |
| 1777386602 | 25.56° C | 86% | 1014.4 hPa | 0 mm | - | 236 W/m² | - |
| 1777374028 | 23.89° C | 93% | 1013.4 hPa | 0 mm | - | 0 W/m² | - |
* Rain latest hour (hover to see other rain measurements)
** Current wind speed in m/s (hover to see current wind gust speed)